Time;durP1;ratioP1;P1;durP2;ratioP2;P2;SDS_P1;SDS_P2;PMS_P1;PMS_P2;Temp;Humidity;BMP_temperature;BMP_pressure;BME280_temperature;BME280_humidity;BME280_pressure;Samples;Min_cycle;Max_cycle;Signal;HPM_P1;HPM_P2
2022/01/10 00:01:07;;;;;;;9.63;4.83;;;;;;;0.99;100.00;98144.70;1709731;84;20991;-72
2022/01/10 00:03:34;;;;;;;9.77;4.90;;;;;;;0.99;100.00;98147.37;1674746;86;21538;-72
2022/01/10 00:06:03;;;;;;;11.97;5.17;;;;;;;0.96;100.00;98137.88;1679695;85;21089;-72
2022/01/10 00:08:31;;;;;;;7.87;4.70;;;;;;;0.94;100.00;98135.38;1703493;84;21090;-72
2022/01/10 00:11:00;;;;;;;10.13;5.20;;;;;;;0.94;100.00;98135.88;1702647;84;21039;-72
2022/01/10 00:13:27;;;;;;;9.13;4.93;;;;;;;0.92;100.00;98137.36;1673927;86;21098;-72
2022/01/10 00:15:56;;;;;;;9.77;5.20;;;;;;;0.93;100.00;98148.33;1703325;84;21047;-72
2022/01/10 00:18:23;;;;;;;9.00;4.80;;;;;;;0.92;100.00;98139.16;1674450;85;21110;-72
2022/01/10 00:20:50;;;;;;;9.03;4.77;;;;;;;0.91;100.00;98137.01;1703388;84;21050;-72
2022/01/10 00:23:18;;;;;;;8.70;4.83;;;;;;;0.91;100.00;98141.50;1674468;86;21106;-73
2022/01/10 00:25:46;;;;;;;7.83;4.80;;;;;;;0.89;100.00;98137.66;1674143;85;21102;-72
2022/01/10 00:28:14;;;;;;;9.63;4.90;;;;;;;0.90;100.00;98142.01;1608560;87;21045;-72
2022/01/10 00:30:40;;;;;;;12.13;5.13;;;;;;;0.90;100.00;98139.34;1623174;88;21579;-73
2022/01/10 00:33:08;;;;;;;10.50;5.37;;;;;;;0.91;100.00;98139.67;1656507;87;21061;-73
2022/01/10 00:35:35;;;;;;;10.23;5.33;;;;;;;0.90;100.00;98138.49;1629120;87;21051;-71
2022/01/10 00:38:02;;;;;;;10.50;5.07;;;;;;;0.90;100.00;98126.52;1628556;87;21075;-71
2022/01/10 00:40:30;;;;;;;11.10;5.50;;;;;;;0.87;100.00;98130.84;1635177;87;21095;-71
2022/01/10 00:42:58;;;;;;;9.53;5.37;;;;;;;0.85;100.00;98129.66;1656672;87;21086;-73
2022/01/10 00:45:27;;;;;;;10.27;5.23;;;;;;;0.85;100.00;98134.13;1635778;87;21062;-72
2022/01/10 00:47:56;;;;;;;9.77;5.13;;;;;;;0.84;100.00;98133.30;1656717;86;21499;-72
2022/01/10 00:50:24;;;;;;;11.53;5.53;;;;;;;0.84;100.00;98135.14;1628701;88;21042;-72
2022/01/10 00:52:52;;;;;;;8.67;5.10;;;;;;;0.83;100.00;98124.97;1635388;87;20999;-73
2022/01/10 00:55:19;;;;;;;12.40;5.27;;;;;;;0.83;100.00;98126.30;1656672;86;21048;-72
2022/01/10 00:57:46;;;;;;;9.97;5.60;;;;;;;0.84;100.00;98127.16;1635059;87;21667;-72
2022/01/10 01:00:15;;;;;;;12.07;5.57;;;;;;;0.85;100.00;98125.67;1656853;87;21017;-72
2022/01/10 01:02:42;;;;;;;10.53;5.47;;;;;;;0.85;100.00;98120.35;1637649;86;21086;-72
2022/01/10 01:05:12;;;;;;;9.43;5.50;;;;;;;0.85;100.00;98113.70;1665520;86;21531;-73
2022/01/10 01:07:39;;;;;;;10.20;5.73;;;;;;;0.84;100.00;98128.48;1684324;84;21067;-73
2022/01/10 01:13:01;;;;;;;52.13;28.70;;;;;;;0.83;100.00;98136.94;1637666;87;21058;-73
2022/01/10 01:15:31;;;;;;;73.50;40.80;;;;;;;0.83;100.00;98126.80;1630299;87;21078;-72
2022/01/10 01:25:52;;;;;;;12.87;7.70;;;;;;;0.79;100.00;98124.13;1656187;87;20997;-71
2022/01/10 01:28:19;;;;;;;12.93;6.70;;;;;;;0.78;100.00;98130.42;1656398;87;21046;-72
2022/01/10 01:30:46;;;;;;;8.67;5.47;;;;;;;0.76;100.00;98119.93;1671212;85;21082;-72
2022/01/10 01:33:15;;;;;;;10.73;5.67;;;;;;;0.76;100.00;98117.27;1648707;86;21082;-72
2022/01/10 01:35:42;;;;;;;10.13;5.87;;;;;;;0.76;100.00;98113.28;1659101;86;21084;-72
2022/01/10 01:38:09;;;;;;;12.57;6.17;;;;;;;0.75;100.00;98115.12;1648598;87;21603;-71
2022/01/10 01:40:43;;;;;;;12.80;6.17;;;;;;;0.76;100.00;98115.94;1657901;86;21062;-72
2022/01/10 01:43:07;;;;;;;11.13;5.53;;;;;;;0.75;100.00;98125.76;1648199;87;21090;-72
2022/01/10 01:45:40;;;;;;;12.33;6.33;;;;;;;0.74;100.00;98134.75;1657624;85;21112;-72
2022/01/10 01:48:07;;;;;;;11.17;6.30;;;;;;;0.75;100.00;98138.23;1648388;87;21074;-72
2022/01/10 01:50:35;;;;;;;11.03;5.73;;;;;;;0.74;100.00;98136.08;1657723;86;21105;-72
2022/01/10 01:53:03;;;;;;;9.40;5.50;;;;;;;0.73;100.00;98139.72;1648330;87;21011;-72
2022/01/10 01:55:30;;;;;;;11.80;5.63;;;;;;;0.74;100.00;98144.06;1657584;86;21579;-73
2022/01/10 01:57:57;;;;;;;10.10;5.83;;;;;;;0.73;100.00;98129.08;1677114;85;21011;-73
2022/01/10 02:00:24;;;;;;;10.07;5.50;;;;;;;0.73;100.00;98137.05;1648231;87;21078;-72
2022/01/10 02:02:54;;;;;;;12.50;6.27;;;;;;;0.76;100.00;98146.53;1628539;87;20996;-72
2022/01/10 02:05:21;;;;;;;14.50;6.83;;;;;;;0.78;100.00;98146.39;1629500;88;21106;-72
2022/01/10 02:07:48;;;;;;;15.30;7.33;;;;;;;0.78;100.00;98142.39;1620635;88;21085;-72
2022/01/10 02:10:16;;;;;;;13.37;6.73;;;;;;;0.77;100.00;98138.91;1645090;86;21529;-72
2022/01/10 02:12:45;;;;;;;11.87;6.20;;;;;;;0.76;100.00;98134.56;1677752;85;21104;-72
2022/01/10 02:15:46;;;;;;;11.30;5.90;;;;;;;0.76;100.00;98138.56;1678161;83;21064;-74
2022/01/10 02:18:04;;;;;;;14.97;6.30;;;;;;;0.75;100.00;98134.24;1674071;85;21542;-72
2022/01/10 02:20:32;;;;;;;12.87;6.20;;;;;;;0.71;100.00;98128.40;1684958;84;21038;-71
2022/01/10 02:22:59;;;;;;;13.33;5.67;;;;;;;0.72;100.00;98131.38;1687121;85;21038;-72
2022/01/10 02:25:30;;;;;;;11.27;6.20;;;;;;;0.73;100.00;98120.27;1692259;85;21012;-72
2022/01/10 02:27:58;;;;;;;13.07;5.90;;;;;;;0.71;100.00;98124.41;1692436;85;21039;-74
2022/01/10 02:30:24;;;;;;;14.10;6.53;;;;;;;0.70;100.00;98120.56;1679302;85;21082;-72
2022/01/10 02:32:52;;;;;;;10.80;6.30;;;;;;;0.72;100.00;98122.07;1662314;86;21034;-70
2022/01/10 02:35:22;;;;;;;11.53;5.90;;;;;;;0.71;100.00;98125.73;1662135;86;21050;-72
2022/01/10 02:37:51;;;;;;;11.57;6.20;;;;;;;0.74;100.00;98130.75;1663254;86;21011;-72
2022/01/10 02:40:19;;;;;;;12.60;6.20;;;;;;;0.75;100.00;98130.25;1662438;86;21125;-73
2022/01/10 02:42:47;;;;;;;13.57;6.40;;;;;;;0.78;100.00;98134.41;1662359;86;21046;-72
2022/01/10 02:45:14;;;;;;;11.97;6.27;;;;;;;0.77;100.00;98129.59;1662234;86;21074;-71
2022/01/10 02:47:41;;;;;;;10.37;5.97;;;;;;;0.76;100.00;98143.88;1662500;86;21038;-72
2022/01/10 02:50:09;;;;;;;13.50;6.33;;;;;;;0.76;100.00;98143.88;1662352;86;21019;-72
2022/01/10 02:52:36;;;;;;;12.67;6.50;;;;;;;0.77;100.00;98137.58;1662381;86;21074;-73
2022/01/10 02:55:04;;;;;;;11.73;5.97;;;;;;;0.78;100.00;98129.09;1662627;86;21031;-71
2022/01/10 02:57:32;;;;;;;14.60;6.40;;;;;;;0.76;100.00;98137.23;1662455;86;21066;-72
2022/01/10 03:00:02;;;;;;;13.67;6.90;;;;;;;0.77;100.00;98136.75;1662507;85;21031;-73
2022/01/10 03:02:33;;;;;;;14.10;6.70;;;;;;;0.78;100.00;98132.61;1678213;84;21052;-72
2022/01/10 03:05:02;;;;;;;15.67;7.17;;;;;;;0.80;100.00;98149.72;1709234;84;21071;-73
2022/01/10 03:07:29;;;;;;;17.70;8.93;;;;;;;0.79;100.00;98164.86;1708946;84;21095;-73
2022/01/10 03:09:57;;;;;;;20.70;9.37;;;;;;;0.80;100.00;98174.53;1708509;84;21627;-73
2022/01/10 03:12:23;;;;;;;17.10;8.93;;;;;;;0.83;100.00;98172.86;1708906;84;21032;-73
2022/01/10 03:14:51;;;;;;;18.00;8.80;;;;;;;0.85;100.00;98168.72;1699721;84;21605;-74
2022/01/10 03:17:18;;;;;;;17.67;9.20;;;;;;;0.86;100.00;98171.73;1673318;85;21046;-73
2022/01/10 03:19:45;;;;;;;18.10;10.27;;;;;;;0.87;100.00;98178.73;1698948;83;21037;-74
2022/01/10 03:22:12;;;;;;;18.97;8.57;;;;;;;0.88;100.00;98175.07;1675905;85;20998;-73
2022/01/10 03:24:39;;;;;;;14.73;8.73;;;;;;;0.89;100.00;98179.42;1687740;85;21054;-74
2022/01/10 03:27:06;;;;;;;16.37;9.00;;;;;;;0.89;100.00;98182.08;1687595;85;21077;-73
2022/01/10 03:29:33;;;;;;;20.40;9.63;;;;;;;0.90;100.00;98177.94;1687632;83;21087;-74
2022/01/10 03:32:02;;;;;;;15.17;7.57;;;;;;;0.91;100.00;98180.09;1680843;85;21066;-74
2022/01/10 03:34:29;;;;;;;16.03;7.43;;;;;;;0.87;100.00;98180.90;1677739;85;21068;-73
2022/01/10 03:36:56;;;;;;;15.40;6.97;;;;;;;0.87;100.00;98183.56;1705128;84;21007;-73
2022/01/10 03:39:25;;;;;;;15.83;7.23;;;;;;;0.88;100.00;98185.21;1704521;83;21023;-74
2022/01/10 03:41:52;;;;;;;16.43;7.23;;;;;;;0.87;100.00;98179.56;1704976;83;21006;-74
2022/01/10 03:44:19;;;;;;;16.27;7.10;;;;;;;0.87;100.00;98188.05;1677555;85;21027;-74
2022/01/10 03:46:48;;;;;;;17.20;6.83;;;;;;;0.87;100.00;98192.05;1677317;84;20995;-73
2022/01/10 03:49:14;;;;;;;15.00;7.37;;;;;;;0.87;100.00;98188.88;1705162;83;21070;-73
2022/01/10 03:51:42;;;;;;;17.33;8.03;;;;;;;0.88;100.00;98198.52;1677962;85;21011;-73
2022/01/10 03:54:09;;;;;;;15.30;8.00;;;;;;;0.90;100.00;98193.05;1677850;84;21583;-74
2022/01/10 03:56:36;;;;;;;16.33;7.53;;;;;;;0.90;100.00;98199.22;1678134;85;21059;-74
2022/01/10 03:59:06;;;;;;;16.47;7.10;;;;;;;0.92;100.00;98195.91;1704807;83;21102;-74
2022/01/10 04:01:38;;;;;;;15.17;7.10;;;;;;;0.92;100.00;98197.71;1698805;83;21082;-73
2022/01/10 04:04:02;;;;;;;17.63;8.00;;;;;;;0.92;100.00;98202.56;1685997;84;21062;-73
2022/01/10 04:06:30;;;;;;;20.37;8.97;;;;;;;0.92;100.00;98205.22;1664956;86;21067;-73
2022/01/10 04:08:57;;;;;;;17.07;8.27;;;;;;;0.91;100.00;98204.05;1664691;86;21540;-73
2022/01/10 04:11:24;;;;;;;16.90;8.30;;;;;;;0.90;100.00;98206.34;1670222;86;21011;-72
2022/01/10 04:13:51;;;;;;;18.90;9.20;;;;;;;0.88;100.00;98207.83;1665111;86;21082;-73
2022/01/10 04:16:18;;;;;;;16.80;8.03;;;;;;;0.88;100.00;98204.34;1647906;86;21047;-73
2022/01/10 04:18:45;;;;;;;22.23;9.30;;;;;;;0.88;100.00;98204.34;1665777;85;21576;-73
2022/01/10 04:21:12;;;;;;;21.77;9.67;;;;;;;0.87;100.00;98208.02;1704587;84;21471;-73
2022/01/10 04:23:40;;;;;;;16.50;8.20;;;;;;;0.86;100.00;98205.83;1704539;84;21058;-74
2022/01/10 04:26:07;;;;;;;21.53;9.67;;;;;;;0.85;100.00;98203.31;1710414;84;21074;-74
2022/01/10 04:28:35;;;;;;;20.00;8.93;;;;;;;0.83;100.00;98203.97;1704440;83;21552;-74
2022/01/10 04:31:04;;;;;;;17.63;9.03;;;;;;;0.82;100.00;98207.12;1707742;84;21038;-74
2022/01/10 04:33:32;;;;;;;21.83;8.77;;;;;;;0.80;100.00;98201.60;1700294;84;21087;-75
2022/01/10 04:35:59;;;;;;;19.67;9.00;;;;;;;0.80;100.00;98208.25;1700398;84;21118;-73
2022/01/10 04:38:27;;;;;;;18.70;9.93;;;;;;;0.78;100.00;98211.09;1682407;84;21508;-73
2022/01/10 04:40:54;;;;;;;16.10;8.60;;;;;;;0.78;100.00;98209.77;1700064;84;21491;-71
2022/01/10 04:43:22;;;;;;;19.07;8.60;;;;;;;0.77;100.00;98208.08;1699719;84;21052;-72
2022/01/10 04:45:49;;;;;;;22.43;8.97;;;;;;;0.77;100.00;98208.59;1699931;84;21019;-70
2022/01/10 04:48:17;;;;;;;18.93;8.97;;;;;;;0.75;100.00;98214.06;1700067;84;21061;-70
2022/01/10 04:53:31;;;;;;;18.67;8.60;;;;;;;0.69;100.00;98216.84;1699674;84;21076;-72
2022/01/10 04:55:59;;;;;;;21.97;9.77;;;;;;;0.69;100.00;98222.63;1700434;84;21091;-70
2022/01/10 04:58:26;;;;;;;20.60;9.43;;;;;;;0.67;100.00;98225.44;1699782;84;21024;-71
2022/01/10 05:00:55;;;;;;;18.17;10.07;;;;;;;0.68;100.00;98231.63;1699432;84;21051;-72
2022/01/10 05:03:23;;;;;;;18.50;8.80;;;;;;;0.67;100.00;98232.59;1654136;84;20998;-71
2022/01/10 05:05:53;;;;;;;19.57;9.33;;;;;;;0.68;100.00;98238.27;1650222;87;21028;-72
2022/01/10 05:08:21;;;;;;;19.83;8.90;;;;;;;0.68;100.00;98240.42;1650414;87;21538;-73
2022/01/10 05:10:50;;;;;;;17.67;8.90;;;;;;;0.69;100.00;98243.44;1711675;84;20991;-70
2022/01/10 05:13:17;;;;;;;17.30;8.60;;;;;;;0.72;100.00;98242.29;1705221;84;21088;-70
2022/01/10 05:15:46;;;;;;;20.07;8.97;;;;;;;0.74;100.00;98238.98;1705432;84;21030;-70
2022/01/10 05:18:14;;;;;;;20.20;8.63;;;;;;;0.75;100.00;98230.02;1705107;84;21531;-71
2022/01/10 05:20:41;;;;;;;21.47;9.47;;;;;;;0.76;100.00;98235.66;1685997;84;21029;-70
2022/01/10 05:23:08;;;;;;;21.67;10.33;;;;;;;0.77;100.00;98241.84;1710764;83;21058;-70
2022/01/10 05:25:36;;;;;;;20.33;10.47;;;;;;;0.78;100.00;98247.02;1711316;84;21057;-71
2022/01/10 05:28:07;;;;;;;21.10;10.27;;;;;;;0.79;100.00;98247.84;1712121;84;21006;-68
2022/01/10 05:30:34;;;;;;;22.57;10.13;;;;;;;0.80;100.00;98258.81;1714244;83;21081;-71
2022/01/10 05:33:03;;;;;;;20.93;11.20;;;;;;;0.80;100.00;98258.34;1723138;83;21018;-70
2022/01/10 05:35:39;;;;;;;23.07;10.97;;;;;;;0.80;100.00;98254.34;1723576;83;21006;-70
2022/01/10 05:38:13;;;;;;;23.37;10.27;;;;;;;0.80;100.00;98253.48;1722420;83;21106;-70
2022/01/10 05:40:40;;;;;;;22.13;10.83;;;;;;;0.79;100.00;98252.66;1722338;83;21025;-71
2022/01/10 05:43:08;;;;;;;25.17;11.60;;;;;;;0.79;100.00;98257.16;1722378;83;21055;-70
2022/01/10 05:45:35;;;;;;;19.73;10.33;;;;;;;0.80;100.00;98262.33;1722027;83;21069;-70
2022/01/10 05:48:08;;;;;;;22.03;10.77;;;;;;;0.83;100.00;98267.83;1721998;83;21046;-70
2022/01/10 05:50:35;;;;;;;21.23;10.47;;;;;;;0.84;100.00;98259.70;1685310;85;21045;-69
2022/01/10 05:53:05;;;;;;;24.20;11.80;;;;;;;0.85;100.00;98258.72;1722475;82;21057;-69
2022/01/10 05:55:32;;;;;;;23.30;12.07;;;;;;;0.87;100.00;98259.90;1722162;83;21500;-71
2022/01/10 05:57:59;;;;;;;27.70;13.30;;;;;;;0.87;100.00;98266.05;1722102;83;20995;-70
2022/01/10 06:00:27;;;;;;;25.03;12.70;;;;;;;0.85;100.00;98268.03;1721999;83;21680;-72
2022/01/10 06:02:54;;;;;;;23.33;12.57;;;;;;;0.86;100.00;98268.36;1725989;82;21050;-71
2022/01/10 06:05:30;;;;;;;25.10;11.63;;;;;;;0.85;100.00;98264.04;1738884;82;21050;-70
2022/01/10 06:07:53;;;;;;;30.20;15.97;;;;;;;0.86;100.00;98259.05;1724287;82;20991;-75
2022/01/10 06:10:21;;;;;;;35.83;20.00;;;;;;;0.88;100.00;98269.03;1736962;83;21106;-72
2022/01/10 06:12:48;;;;;;;42.47;25.07;;;;;;;0.90;100.00;98255.58;1736978;82;21058;-70
2022/01/10 06:15:15;;;;;;;40.70;23.80;;;;;;;0.94;100.00;98253.80;1745354;82;21040;-70
2022/01/10 06:17:44;;;;;;;37.23;21.73;;;;;;;0.97;100.00;98255.81;1737788;83;21047;-70
2022/01/10 06:20:12;;;;;;;31.73;17.70;;;;;;;1.01;100.00;98258.50;1737738;82;21018;-73
2022/01/10 06:22:39;;;;;;;30.07;17.77;;;;;;;1.05;100.00;98262.55;1738645;83;21045;-74
2022/01/10 06:25:10;;;;;;;31.40;17.87;;;;;;;1.08;100.00;98271.53;1738536;82;21207;-75
2022/01/10 06:27:37;;;;;;;30.50;17.77;;;;;;;1.09;100.00;98281.20;1738380;82;21037;-73
2022/01/10 06:30:05;;;;;;;30.77;17.53;;;;;;;1.10;100.00;98279.72;1746259;82;21038;-76
2022/01/10 06:32:33;;;;;;;28.03;15.57;;;;;;;1.11;100.00;98280.55;1740604;80;21120;-76
2022/01/10 06:35:01;;;;;;;27.00;13.80;;;;;;;1.13;100.00;98289.21;1741011;82;20979;-70
2022/01/10 06:37:28;;;;;;;48.17;28.53;;;;;;;1.13;100.00;98293.20;1715358;82;21606;-69
2022/01/10 06:39:55;;;;;;;39.40;20.33;;;;;;;1.11;100.00;98289.36;1742189;81;21587;-75
2022/01/10 06:42:22;;;;;;;39.53;18.80;;;;;;;1.13;100.00;98283.88;1742654;81;21042;-72
2022/01/10 06:44:50;;;;;;;38.47;18.47;;;;;;;1.14;100.00;98281.58;1738128;82;21089;-75
2022/01/10 06:47:17;;;;;;;35.37;16.13;;;;;;;1.13;100.00;98280.75;1741445;82;21065;-75
2022/01/10 06:49:45;;;;;;;31.23;14.87;;;;;;;1.16;100.00;98288.08;1737370;82;21018;-75
2022/01/10 06:52:12;;;;;;;32.60;14.47;;;;;;;1.16;100.00;98281.42;1736690;82;21014;-76
2022/01/10 06:54:40;;;;;;;35.10;15.60;;;;;;;1.16;100.00;98287.58;1742048;81;21511;-76
2022/01/10 06:57:07;;;;;;;31.57;14.20;;;;;;;1.19;100.00;98289.08;1673788;85;21000;-76
2022/01/10 06:59:35;;;;;;;30.47;12.53;;;;;;;1.20;100.00;98283.61;1723723;83;21051;-75
2022/01/10 07:02:02;;;;;;;28.97;13.23;;;;;;;1.23;100.00;98285.14;1710222;83;21005;-75
2022/01/10 07:04:30;;;;;;;30.83;15.53;;;;;;;1.24;100.00;98278.34;1706206;83;21670;-76
2022/01/10 07:06:59;;;;;;;33.63;16.13;;;;;;;1.26;100.00;98281.67;1705968;82;21159;-73
2022/01/10 07:09:29;;;;;;;31.27;15.17;;;;;;;1.28;100.00;98282.35;1703470;83;21536;-68
2022/01/10 07:11:57;;;;;;;31.50;14.77;;;;;;;1.31;100.00;98284.71;1686831;84;21013;-75
2022/01/10 07:14:28;;;;;;;41.50;21.10;;;;;;;1.33;100.00;98292.05;1682841;85;21534;-76
2022/01/10 07:16:56;;;;;;;34.57;16.67;;;;;;;1.35;100.00;98285.23;1684996;85;21063;-75
2022/01/10 07:19:29;;;;;;;33.17;16.57;;;;;;;1.36;100.00;98282.90;1698786;83;21067;-76
2022/01/10 07:21:56;;;;;;;30.87;15.47;;;;;;;1.35;100.00;98277.25;1689775;85;21039;-72
2022/01/10 07:24:24;;;;;;;34.77;15.70;;;;;;;1.35;100.00;98283.05;1675366;85;21472;-72
2022/01/10 07:26:51;;;;;;;29.70;15.27;;;;;;;1.37;100.00;98283.75;1678350;85;21086;-71
2022/01/10 07:29:18;;;;;;;32.43;14.60;;;;;;;1.41;100.00;98278.45;1722427;83;21035;-72
2022/01/10 07:31:44;;;;;;;37.83;22.90;;;;;;;1.44;100.00;98280.80;1668654;85;21086;-72
2022/01/10 07:34:14;;;;;;;36.87;19.27;;;;;;;1.45;100.00;98280.66;1684992;84;21484;-72
2022/01/10 07:36:41;;;;;;;33.17;15.77;;;;;;;1.48;100.00;98274.99;1686001;84;21447;-72
2022/01/10 07:39:08;;;;;;;29.83;15.20;;;;;;;1.49;100.00;98278.01;1687315;83;21102;-76
2022/01/10 07:41:35;;;;;;;52.87;22.53;;;;;;;1.49;100.00;98271.86;1671021;85;21092;-70
2022/01/10 07:44:02;;;;;;;36.07;16.03;;;;;;;1.52;100.00;98276.84;1674866;85;21025;-73
2022/01/10 07:46:29;;;;;;;36.83;18.20;;;;;;;1.56;100.00;98274.23;1721107;83;20991;-73
2022/01/10 07:48:56;;;;;;;39.07;19.67;;;;;;;1.61;100.00;98279.06;1689526;82;21316;-77
2022/01/10 07:51:24;;;;;;;46.83;22.07;;;;;;;1.67;100.00;98274.45;1731745;82;20988;-75
2022/01/10 07:53:51;;;;;;;48.37;23.80;;;;;;;1.74;100.00;98271.50;1695858;84;21027;-72
2022/01/10 07:56:18;;;;;;;51.53;22.97;;;;;;;1.78;100.00;98274.17;1697550;84;20999;-77
2022/01/10 07:58:48;;;;;;;42.93;20.37;;;;;;;1.80;100.00;98270.02;1678170;84;21037;-76
2022/01/10 08:01:13;;;;;;;40.33;18.93;;;;;;;1.79;100.00;98274.53;1680030;85;22211;-76
2022/01/10 08:03:40;;;;;;;37.73;17.70;;;;;;;1.80;100.00;98274.02;1660618;85;21500;-76
2022/01/10 08:06:07;;;;;;;36.70;17.53;;;;;;;1.81;100.00;98268.53;1686214;84;21557;-76
2022/01/10 08:08:35;;;;;;;47.87;23.93;;;;;;;1.83;100.00;98263.87;1658528;85;21632;-75
2022/01/10 08:11:02;;;;;;;50.37;25.73;;;;;;;1.83;100.00;98258.55;1698300;83;21543;-74
2022/01/10 08:13:31;;;;;;;47.60;23.20;;;;;;;1.86;100.00;98257.38;1660695;85;21051;-72
2022/01/10 08:15:58;;;;;;;50.67;24.67;;;;;;;1.87;100.00;98261.73;1667525;85;21060;-74
2022/01/10 08:18:31;;;;;;;44.23;19.53;;;;;;;1.84;100.00;98260.23;1667553;85;21108;-73
2022/01/10 08:21:06;;;;;;;41.27;21.17;;;;;;;1.81;100.00;98264.54;1677696;85;21618;-74
2022/01/10 08:23:35;;;;;;;40.13;25.20;;;;;;;1.79;100.00;98267.87;1651435;86;21367;-70
2022/01/10 08:26:03;;;;;;;31.00;15.20;;;;;;;1.81;100.00;98269.05;1664893;85;21536;-71
2022/01/10 08:28:30;;;;;;;32.77;16.23;;;;;;;1.79;100.00;98270.53;1652807;86;21072;-76
2022/01/10 08:30:57;;;;;;;30.37;14.93;;;;;;;1.80;100.00;98269.52;1652365;85;21606;-75
2022/01/10 08:33:25;;;;;;;29.83;15.53;;;;;;;1.81;100.00;98269.88;1664802;85;21103;-75
2022/01/10 08:35:52;;;;;;;36.47;18.40;;;;;;;1.87;100.00;98277.72;1668698;85;21628;-76
2022/01/10 08:38:19;;;;;;;38.33;17.77;;;;;;;1.87;100.00;98275.88;1670645;84;21115;-75
2022/01/10 08:40:46;;;;;;;33.90;17.33;;;;;;;1.88;100.00;98268.75;1677128;84;21123;-74
2022/01/10 08:43:13;;;;;;;60.93;38.53;;;;;;;1.89;100.00;98267.26;1661960;85;21049;-77
2022/01/10 08:45:40;;;;;;;47.87;26.10;;;;;;;1.88;100.00;98258.91;1670087;85;21009;-75
2022/01/10 08:48:07;;;;;;;58.73;29.27;;;;;;;1.90;100.00;98260.91;1671022;85;21015;-77
2022/01/10 08:50:34;;;;;;;43.00;22.90;;;;;;;1.93;100.00;98254.92;1671755;84;21301;-72
2022/01/10 08:53:04;;;;;;;38.43;21.83;;;;;;;1.96;100.00;98257.28;1682417;85;21064;-75
2022/01/10 08:55:31;;;;;;;35.73;18.07;;;;;;;1.98;100.00;98257.95;1612514;87;21568;-75
2022/01/10 08:57:59;;;;;;;28.27;15.43;;;;;;;2.02;100.00;98246.81;1627918;87;21082;-76
2022/01/10 09:00:27;;;;;;;35.10;17.23;;;;;;;2.09;100.00;98241.17;1649872;85;21337;-76
2022/01/10 09:02:54;;;;;;;26.73;13.67;;;;;;;2.17;100.00;98235.02;1627599;87;21541;-77
2022/01/10 09:05:21;;;;;;;39.67;16.60;;;;;;;2.26;100.00;98228.71;1679620;85;21037;-77
2022/01/10 09:07:53;;;;;;;34.27;15.47;;;;;;;2.33;100.00;98229.41;1649010;86;21036;-75
2022/01/10 09:10:20;;;;;;;31.07;13.47;;;;;;;2.40;100.00;98231.76;1684687;85;21512;-76
2022/01/10 09:12:48;;;;;;;33.90;17.03;;;;;;;2.45;100.00;98230.78;1665161;84;21035;-75
2022/01/10 09:15:15;;;;;;;33.43;16.60;;;;;;;2.48;100.00;98235.80;1682326;85;21065;-70
2022/01/10 09:17:42;;;;;;;32.73;16.03;;;;;;;2.54;100.00;98236.97;1678906;84;21034;-77
2022/01/10 09:20:10;;;;;;;34.47;16.57;;;;;;;2.59;100.00;98230.13;1684530;84;21460;-74
2022/01/10 09:22:37;;;;;;;30.23;15.53;;;;;;;2.66;100.00;98222.31;1683622;84;20991;-74
2022/01/10 09:25:05;;;;;;;41.63;22.10;;;;;;;2.70;100.00;98216.97;1682912;84;21510;-75
2022/01/10 09:27:32;;;;;;;41.37;21.93;;;;;;;2.74;100.00;98210.80;1669042;85;21022;-77
2022/01/10 09:29:59;;;;;;;40.27;21.93;;;;;;;2.77;100.00;98197.95;1663959;84;21049;-77
2022/01/10 09:32:26;;;;;;;33.63;17.30;;;;;;;2.81;100.00;98192.60;1677126;85;21076;-76
2022/01/10 09:34:53;;;;;;;40.67;20.97;;;;;;;2.86;100.00;98186.77;1658791;85;21103;-77
2022/01/10 09:37:21;;;;;;;37.17;21.13;;;;;;;2.91;100.00;98186.28;1681189;84;21013;-73
2022/01/10 09:39:48;;;;;;;31.20;17.50;;;;;;;2.94;100.00;98176.58;1679695;83;21009;-73
2022/01/10 09:42:15;;;;;;;30.67;15.93;;;;;;;2.98;100.00;98177.94;1662908;85;21036;-77
2022/01/10 09:44:43;;;;;;;39.20;20.67;;;;;;;3.00;100.00;98183.94;1656119;85;21922;-76
2022/01/10 09:47:10;;;;;;;48.30;25.27;;;;;;;2.98;100.00;98181.43;1664305;84;21092;-76
2022/01/10 09:49:38;;;;;;;44.27;21.53;;;;;;;3.02;100.00;98177.92;1688359;83;21141;-73
2022/01/10 09:52:06;;;;;;;38.00;19.43;;;;;;;3.06;100.00;98183.25;1704558;83;21185;-74
2022/01/10 09:54:34;;;;;;;39.87;22.57;;;;;;;3.12;100.00;98177.25;1689824;84;21030;-72
2022/01/10 09:57:02;;;;;;;38.60;19.37;;;;;;;3.19;100.00;98179.58;1665121;85;21065;-75
2022/01/10 09:59:30;;;;;;;46.90;28.77;;;;;;;3.20;100.00;98175.05;1631062;87;21110;-74
2022/01/10 10:01:57;;;;;;;48.43;26.10;;;;;;;3.23;100.00;98181.41;1659606;85;21022;-73
2022/01/10 10:04:24;;;;;;;42.23;21.10;;;;;;;3.28;100.00;98181.73;1630634;87;21062;-73
2022/01/10 10:06:51;;;;;;;44.40;25.73;;;;;;;3.31;100.00;98189.41;1597993;88;21075;-74
2022/01/10 10:09:18;;;;;;;47.43;26.63;;;;;;;3.34;100.00;98192.23;1654582;85;21083;-74
2022/01/10 10:11:50;;;;;;;48.43;27.13;;;;;;;3.30;100.00;98197.08;1660297;86;21082;-73
2022/01/10 10:14:21;;;;;;;51.60;30.60;;;;;;;3.28;100.00;98197.76;1658039;85;20982;-74
2022/01/10 10:16:56;;;;;;;50.87;31.37;;;;;;;3.26;100.00;98194.42;1656119;85;21081;-72
2022/01/10 10:19:28;;;;;;;53.77;31.33;;;;;;;3.25;100.00;98199.94;1726139;82;21022;-73
2022/01/10 10:21:56;;;;;;;57.47;34.37;;;;;;;3.23;100.00;98191.58;1689072;83;21053;-73
2022/01/10 10:24:24;;;;;;;78.63;44.03;;;;;;;3.24;100.00;98191.09;1679931;84;21031;-72
2022/01/10 10:26:50;;;;;;;53.10;29.17;;;;;;;3.22;100.00;98187.25;1734151;82;21040;-74
2022/01/10 10:29:18;;;;;;;61.73;35.23;;;;;;;3.19;100.00;98196.94;1665003;85;21539;-78
2022/01/10 10:31:54;;;;;;;68.90;39.00;;;;;;;3.14;100.00;98197.94;1665112;84;21083;-75
2022/01/10 10:34:27;;;;;;;115.00;66.57;;;;;;;3.13;100.00;98200.77;1701348;82;21040;-73
2022/01/10 10:37:06;;;;;;;111.03;67.63;;;;;;;3.13;100.00;98209.61;1614379;87;21063;-72
2022/01/10 10:39:34;;;;;;;99.10;60.27;;;;;;;3.16;100.00;98204.45;1595521;87;21023;-72
2022/01/10 10:42:04;;;;;;;85.13;49.50;;;;;;;3.19;100.00;98207.62;1622561;87;21074;-74
2022/01/10 10:44:31;;;;;;;90.87;52.00;;;;;;;3.20;100.00;98205.27;1615568;87;21067;-72
2022/01/10 10:46:58;;;;;;;98.13;52.90;;;;;;;3.22;100.00;98203.28;1603610;87;21063;-73
2022/01/10 10:49:35;;;;;;;123.83;73.47;;;;;;;3.24;100.00;98212.47;1613212;87;21059;-75
2022/01/10 10:52:03;;;;;;;118.93;62.33;;;;;;;3.22;100.00;98213.97;1569085;90;21069;-75
2022/01/10 10:54:32;;;;;;;119.30;67.43;;;;;;;3.21;100.00;98214.12;1556520;92;21045;-79
2022/01/10 10:57:00;;;;;;;111.93;58.93;;;;;;;3.17;100.00;98225.66;1552503;92;21139;-74
2022/01/10 10:59:30;;;;;;;112.07;56.87;;;;;;;3.13;100.00;98233.65;1532152;92;21105;-79
2022/01/10 11:01:56;;;;;;;109.90;59.07;;;;;;;3.07;100.00;98242.86;1557919;91;21058;-77
2022/01/10 11:04:23;;;;;;;194.97;118.57;;;;;;;3.03;100.00;98246.36;1538384;91;21059;-76
2022/01/10 11:06:50;;;;;;;196.17;113.07;;;;;;;2.99;100.00;98251.20;1550680;91;21101;-75
2022/01/10 11:09:18;;;;;;;201.33;108.43;;;;;;;2.98;100.00;98260.20;1567980;91;21592;-75
2022/01/10 11:11:46;;;;;;;211.90;103.17;;;;;;;2.96;100.00;98262.72;1555771;91;21056;-76
2022/01/10 11:14:14;;;;;;;206.13;100.20;;;;;;;2.93;100.00;98271.05;1552815;91;21565;-73
2022/01/10 11:16:43;;;;;;;217.53;106.87;;;;;;;2.89;100.00;98276.39;1558220;91;21074;-75
2022/01/10 11:19:16;;;;;;;197.40;91.67;;;;;;;2.86;100.00;98282.88;1542744;91;21622;-74
2022/01/10 11:22:02;;;;;;;223.03;108.60;;;;;;;2.81;100.00;98291.37;1558209;91;21561;-74
2022/01/10 11:24:54;;;;;;;170.50;86.30;;;;;;;2.79;100.00;98287.20;1546313;91;21059;-74
2022/01/10 11:27:39;;;;;;;186.37;100.63;;;;;;;2.74;100.00;98293.02;1535456;91;21516;-76
2022/01/10 11:30:34;;;;;;;163.60;87.37;;;;;;;2.70;100.00;98302.37;1556716;91;21031;-76
2022/01/10 11:33:13;;;;;;;171.33;83.37;;;;;;;2.66;100.00;98303.20;1559344;89;21101;-76
2022/01/10 11:36:00;;;;;;;150.60;69.33;;;;;;;2.61;100.00;98306.84;1576933;89;21494;-75
2022/01/10 11:38:38;;;;;;;137.97;67.93;;;;;;;2.60;100.00;98314.53;1576625;89;21080;-75